sensor_id;sensor_type;location;lat;lon;timestamp;P1;durP1;ratioP1;P2;durP2;ratioP2
30020;SDS011;16861;52.294;7.760;2024-03-17T00:01:54;7.15;;;2.53;;
30020;SDS011;16861;52.294;7.760;2024-03-17T00:04:38;10.80;;;2.65;;
30020;SDS011;16861;52.294;7.760;2024-03-17T00:09:35;11.20;;;3.63;;
30020;SDS011;16861;52.294;7.760;2024-03-17T00:12:01;10.80;;;4.15;;
30020;SDS011;16861;52.294;7.760;2024-03-17T00:14:40;11.18;;;4.38;;
30020;SDS011;16861;52.294;7.760;2024-03-17T00:17:08;7.13;;;3.67;;
30020;SDS011;16861;52.294;7.760;2024-03-17T00:19:33;9.80;;;3.70;;
30020;SDS011;16861;52.294;7.760;2024-03-17T00:21:59;12.23;;;3.65;;
30020;SDS011;16861;52.294;7.760;2024-03-17T00:24:25;11.15;;;3.75;;
30020;SDS011;16861;52.294;7.760;2024-03-17T00:26:52;13.68;;;3.67;;
30020;SDS011;16861;52.294;7.760;2024-03-17T00:29:20;12.32;;;3.90;;
30020;SDS011;16861;52.294;7.760;2024-03-17T00:31:46;5.45;;;3.25;;
30020;SDS011;16861;52.294;7.760;2024-03-17T00:34:15;9.20;;;3.50;;
30020;SDS011;16861;52.294;7.760;2024-03-17T00:36:45;10.00;;;3.42;;
30020;SDS011;16861;52.294;7.760;2024-03-17T00:39:11;8.80;;;3.17;;
30020;SDS011;16861;52.294;7.760;2024-03-17T00:41:38;8.35;;;3.20;;
30020;SDS011;16861;52.294;7.760;2024-03-17T00:44:04;9.38;;;3.78;;
30020;SDS011;16861;52.294;7.760;2024-03-17T00:46:29;9.55;;;3.35;;
30020;SDS011;16861;52.294;7.760;2024-03-17T00:48:55;13.57;;;3.10;;
30020;SDS011;16861;52.294;7.760;2024-03-17T00:51:23;10.45;;;2.85;;
30020;SDS011;16861;52.294;7.760;2024-03-17T00:53:51;9.25;;;3.05;;
30020;SDS011;16861;52.294;7.760;2024-03-17T00:56:17;11.65;;;2.95;;
30020;SDS011;16861;52.294;7.760;2024-03-17T00:58:43;5.93;;;2.65;;
30020;SDS011;16861;52.294;7.760;2024-03-17T01:01:10;7.93;;;3.00;;
30020;SDS011;16861;52.294;7.760;2024-03-17T01:03:36;9.98;;;2.50;;
30020;SDS011;16861;52.294;7.760;2024-03-17T01:06:05;8.65;;;2.80;;
30020;SDS011;16861;52.294;7.760;2024-03-17T01:08:31;8.10;;;3.10;;
30020;SDS011;16861;52.294;7.760;2024-03-17T01:10:57;7.70;;;2.78;;
30020;SDS011;16861;52.294;7.760;2024-03-17T01:13:23;5.63;;;2.28;;
30020;SDS011;16861;52.294;7.760;2024-03-17T01:15:53;10.90;;;2.65;;
30020;SDS011;16861;52.294;7.760;2024-03-17T01:18:18;4.75;;;2.33;;
30020;SDS011;16861;52.294;7.760;2024-03-17T01:20:44;7.93;;;2.90;;
30020;SDS011;16861;52.294;7.760;2024-03-17T01:23:10;4.85;;;2.50;;
30020;SDS011;16861;52.294;7.760;2024-03-17T01:25:36;5.65;;;2.33;;
30020;SDS011;16861;52.294;7.760;2024-03-17T01:28:03;5.82;;;2.53;;
30020;SDS011;16861;52.294;7.760;2024-03-17T01:30:29;6.07;;;2.67;;
30020;SDS011;16861;52.294;7.760;2024-03-17T01:32:55;10.55;;;2.80;;
30020;SDS011;16861;52.294;7.760;2024-03-17T01:35:23;8.20;;;2.60;;
30020;SDS011;16861;52.294;7.760;2024-03-17T01:37:49;9.98;;;2.60;;
30020;SDS011;16861;52.294;7.760;2024-03-17T01:40:15;9.43;;;3.05;;
30020;SDS011;16861;52.294;7.760;2024-03-17T01:42:40;12.32;;;2.65;;
30020;SDS011;16861;52.294;7.760;2024-03-17T01:47:42;7.25;;;2.55;;
30020;SDS011;16861;52.294;7.760;2024-03-17T01:50:08;7.70;;;2.63;;
30020;SDS011;16861;52.294;7.760;2024-03-17T01:52:35;9.70;;;2.20;;
30020;SDS011;16861;52.294;7.760;2024-03-17T01:55:02;5.70;;;2.60;;
30020;SDS011;16861;52.294;7.760;2024-03-17T01:57:29;7.07;;;2.72;;
30020;SDS011;16861;52.294;7.760;2024-03-17T01:59:55;5.78;;;2.45;;
30020;SDS011;16861;52.294;7.760;2024-03-17T02:02:22;5.35;;;2.80;;
30020;SDS011;16861;52.294;7.760;2024-03-17T02:04:48;7.85;;;2.53;;
30020;SDS011;16861;52.294;7.760;2024-03-17T02:07:14;6.45;;;3.05;;
30020;SDS011;16861;52.294;7.760;2024-03-17T02:09:40;13.40;;;2.85;;
30020;SDS011;16861;52.294;7.760;2024-03-17T02:12:08;3.92;;;2.88;;
30020;SDS011;16861;52.294;7.760;2024-03-17T02:14:34;5.75;;;2.80;;
30020;SDS011;16861;52.294;7.760;2024-03-17T02:17:00;7.55;;;2.67;;
30020;SDS011;16861;52.294;7.760;2024-03-17T02:19:26;9.45;;;2.70;;
30020;SDS011;16861;52.294;7.760;2024-03-17T02:21:54;5.38;;;2.40;;
30020;SDS011;16861;52.294;7.760;2024-03-17T02:24:20;9.50;;;2.38;;
30020;SDS011;16861;52.294;7.760;2024-03-17T02:26:45;5.07;;;2.30;;
30020;SDS011;16861;52.294;7.760;2024-03-17T02:29:11;8.13;;;2.17;;
30020;SDS011;16861;52.294;7.760;2024-03-17T02:31:37;3.10;;;2.20;;
30020;SDS011;16861;52.294;7.760;2024-03-17T02:34:03;5.10;;;2.40;;
30020;SDS011;16861;52.294;7.760;2024-03-17T02:36:28;5.53;;;2.20;;
30020;SDS011;16861;52.294;7.760;2024-03-17T02:38:54;7.97;;;2.70;;
30020;SDS011;16861;52.294;7.760;2024-03-17T02:41:42;6.70;;;2.20;;
30020;SDS011;16861;52.294;7.760;2024-03-17T02:44:08;5.18;;;2.40;;
30020;SDS011;16861;52.294;7.760;2024-03-17T02:46:33;7.88;;;2.47;;
30020;SDS011;16861;52.294;7.760;2024-03-17T02:49:00;4.75;;;2.03;;
30020;SDS011;16861;52.294;7.760;2024-03-17T02:51:26;5.75;;;2.08;;
30020;SDS011;16861;52.294;7.760;2024-03-17T02:53:51;7.80;;;2.10;;
30020;SDS011;16861;52.294;7.760;2024-03-17T02:56:17;7.45;;;1.92;;
30020;SDS011;16861;52.294;7.760;2024-03-17T02:58:44;5.75;;;2.20;;
30020;SDS011;16861;52.294;7.760;2024-03-17T03:01:20;5.15;;;1.40;;
30020;SDS011;16861;52.294;7.760;2024-03-17T03:03:49;5.95;;;1.60;;
30020;SDS011;16861;52.294;7.760;2024-03-17T03:06:15;5.18;;;1.42;;
30020;SDS011;16861;52.294;7.760;2024-03-17T03:08:43;7.72;;;2.78;;
30020;SDS011;16861;52.294;7.760;2024-03-17T03:11:09;5.35;;;1.90;;
30020;SDS011;16861;52.294;7.760;2024-03-17T03:13:40;3.83;;;2.08;;
30020;SDS011;16861;52.294;7.760;2024-03-17T03:16:09;5.63;;;2.10;;
30020;SDS011;16861;52.294;7.760;2024-03-17T03:18:37;6.28;;;1.88;;
30020;SDS011;16861;52.294;7.760;2024-03-17T03:21:04;6.13;;;2.38;;
30020;SDS011;16861;52.294;7.760;2024-03-17T03:23:31;6.65;;;2.05;;
30020;SDS011;16861;52.294;7.760;2024-03-17T03:25:58;8.57;;;2.13;;
30020;SDS011;16861;52.294;7.760;2024-03-17T03:28:25;5.70;;;2.00;;
30020;SDS011;16861;52.294;7.760;2024-03-17T03:30:52;6.28;;;1.90;;
30020;SDS011;16861;52.294;7.760;2024-03-17T03:33:18;8.05;;;2.33;;
30020;SDS011;16861;52.294;7.760;2024-03-17T03:35:45;7.18;;;2.35;;
30020;SDS011;16861;52.294;7.760;2024-03-17T03:38:11;5.80;;;2.22;;
30020;SDS011;16861;52.294;7.760;2024-03-17T03:40:39;8.82;;;2.20;;
30020;SDS011;16861;52.294;7.760;2024-03-17T03:43:05;7.47;;;2.47;;
30020;SDS011;16861;52.294;7.760;2024-03-17T03:45:31;6.07;;;2.63;;
30020;SDS011;16861;52.294;7.760;2024-03-17T03:47:56;4.43;;;1.63;;
30020;SDS011;16861;52.294;7.760;2024-03-17T03:50:22;6.72;;;2.15;;
30020;SDS011;16861;52.294;7.760;2024-03-17T03:52:48;6.53;;;2.30;;
30020;SDS011;16861;52.294;7.760;2024-03-17T03:55:15;8.38;;;2.58;;
30020;SDS011;16861;52.294;7.760;2024-03-17T03:57:43;10.30;;;2.42;;
30020;SDS011;16861;52.294;7.760;2024-03-17T04:00:16;7.10;;;2.10;;
30020;SDS011;16861;52.294;7.760;2024-03-17T04:02:47;4.57;;;1.80;;
30020;SDS011;16861;52.294;7.760;2024-03-17T04:05:16;6.60;;;2.25;;
30020;SDS011;16861;52.294;7.760;2024-03-17T04:07:43;12.77;;;2.30;;
30020;SDS011;16861;52.294;7.760;2024-03-17T04:10:11;5.63;;;1.90;;
30020;SDS011;16861;52.294;7.760;2024-03-17T04:12:38;7.90;;;2.53;;
30020;SDS011;16861;52.294;7.760;2024-03-17T04:15:04;7.97;;;2.38;;
30020;SDS011;16861;52.294;7.760;2024-03-17T04:17:31;8.57;;;2.25;;
30020;SDS011;16861;52.294;7.760;2024-03-17T04:19:58;8.30;;;1.80;;
30020;SDS011;16861;52.294;7.760;2024-03-17T04:22:24;7.65;;;2.20;;
30020;SDS011;16861;52.294;7.760;2024-03-17T04:24:50;5.32;;;1.77;;
30020;SDS011;16861;52.294;7.760;2024-03-17T04:27:24;7.95;;;2.13;;
30020;SDS011;16861;52.294;7.760;2024-03-17T04:29:54;6.20;;;1.90;;
30020;SDS011;16861;52.294;7.760;2024-03-17T04:32:22;6.70;;;1.98;;
30020;SDS011;16861;52.294;7.760;2024-03-17T04:34:48;6.18;;;1.77;;
30020;SDS011;16861;52.294;7.760;2024-03-17T04:37:15;5.47;;;1.63;;
30020;SDS011;16861;52.294;7.760;2024-03-17T04:39:41;13.05;;;1.85;;
30020;SDS011;16861;52.294;7.760;2024-03-17T04:42:11;8.90;;;1.85;;
30020;SDS011;16861;52.294;7.760;2024-03-17T04:44:39;8.55;;;1.90;;
30020;SDS011;16861;52.294;7.760;2024-03-17T04:47:07;6.72;;;2.13;;
30020;SDS011;16861;52.294;7.760;2024-03-17T04:49:37;7.30;;;1.60;;
30020;SDS011;16861;52.294;7.760;2024-03-17T04:52:04;4.40;;;1.60;;
30020;SDS011;16861;52.294;7.760;2024-03-17T04:54:31;6.93;;;2.60;;
30020;SDS011;16861;52.294;7.760;2024-03-17T04:56:57;7.15;;;2.05;;
30020;SDS011;16861;52.294;7.760;2024-03-17T04:59:23;7.97;;;1.70;;
30020;SDS011;16861;52.294;7.760;2024-03-17T05:01:49;7.20;;;2.30;;
30020;SDS011;16861;52.294;7.760;2024-03-17T05:04:15;9.05;;;2.30;;
30020;SDS011;16861;52.294;7.760;2024-03-17T05:06:41;5.65;;;2.03;;
30020;SDS011;16861;52.294;7.760;2024-03-17T05:09:14;11.52;;;2.30;;
30020;SDS011;16861;52.294;7.760;2024-03-17T05:11:40;10.68;;;2.30;;
30020;SDS011;16861;52.294;7.760;2024-03-17T05:14:07;11.93;;;2.05;;
30020;SDS011;16861;52.294;7.760;2024-03-17T05:16:33;8.70;;;2.17;;
30020;SDS011;16861;52.294;7.760;2024-03-17T05:18:59;8.32;;;1.92;;
30020;SDS011;16861;52.294;7.760;2024-03-17T05:21:24;5.28;;;2.10;;
30020;SDS011;16861;52.294;7.760;2024-03-17T05:23:51;4.63;;;1.67;;
30020;SDS011;16861;52.294;7.760;2024-03-17T05:26:17;4.93;;;1.98;;
30020;SDS011;16861;52.294;7.760;2024-03-17T05:28:43;9.50;;;1.80;;
30020;SDS011;16861;52.294;7.760;2024-03-17T05:31:12;6.63;;;2.13;;
30020;SDS011;16861;52.294;7.760;2024-03-17T05:33:40;6.75;;;2.17;;
30020;SDS011;16861;52.294;7.760;2024-03-17T05:36:06;5.13;;;1.75;;
30020;SDS011;16861;52.294;7.760;2024-03-17T05:38:32;9.48;;;2.50;;
30020;SDS011;16861;52.294;7.760;2024-03-17T05:41:01;12.80;;;2.42;;
30020;SDS011;16861;52.294;7.760;2024-03-17T05:43:29;6.45;;;1.98;;
30020;SDS011;16861;52.294;7.760;2024-03-17T05:46:02;6.10;;;2.10;;
30020;SDS011;16861;52.294;7.760;2024-03-17T05:48:29;7.90;;;2.13;;
30020;SDS011;16861;52.294;7.760;2024-03-17T05:50:55;4.53;;;2.17;;
30020;SDS011;16861;52.294;7.760;2024-03-17T05:53:21;6.57;;;2.15;;
30020;SDS011;16861;52.294;7.760;2024-03-17T05:55:49;14.48;;;2.80;;
30020;SDS011;16861;52.294;7.760;2024-03-17T05:58:16;8.30;;;2.45;;
30020;SDS011;16861;52.294;7.760;2024-03-17T06:00:44;14.57;;;2.90;;
30020;SDS011;16861;52.294;7.760;2024-03-17T06:03:10;12.30;;;2.60;;
30020;SDS011;16861;52.294;7.760;2024-03-17T06:05:36;7.97;;;2.38;;
30020;SDS011;16861;52.294;7.760;2024-03-17T06:08:04;6.95;;;2.28;;
30020;SDS011;16861;52.294;7.760;2024-03-17T06:10:31;6.72;;;2.70;;
30020;SDS011;16861;52.294;7.760;2024-03-17T06:12:57;11.05;;;2.78;;
30020;SDS011;16861;52.294;7.760;2024-03-17T06:15:23;10.30;;;3.17;;
30020;SDS011;16861;52.294;7.760;2024-03-17T06:17:50;10.75;;;3.00;;
30020;SDS011;16861;52.294;7.760;2024-03-17T06:23:08;6.18;;;2.40;;
30020;SDS011;16861;52.294;7.760;2024-03-17T06:28:10;8.70;;;3.30;;
30020;SDS011;16861;52.294;7.760;2024-03-17T06:33:40;9.30;;;3.20;;
30020;SDS011;16861;52.294;7.760;2024-03-17T06:41:30;8.73;;;2.53;;
30020;SDS011;16861;52.294;7.760;2024-03-17T06:46:41;7.85;;;3.30;;
30020;SDS011;16861;52.294;7.760;2024-03-17T06:49:15;6.00;;;2.83;;
30020;SDS011;16861;52.294;7.760;2024-03-17T06:51:40;6.13;;;2.65;;
30020;SDS011;16861;52.294;7.760;2024-03-17T06:54:06;8.50;;;3.30;;
30020;SDS011;16861;52.294;7.760;2024-03-17T06:59:22;13.40;;;4.22;;
30020;SDS011;16861;52.294;7.760;2024-03-17T07:01:58;10.80;;;3.13;;
30020;SDS011;16861;52.294;7.760;2024-03-17T07:04:24;11.35;;;3.72;;
30020;SDS011;16861;52.294;7.760;2024-03-17T07:07:04;10.10;;;3.65;;
30020;SDS011;16861;52.294;7.760;2024-03-17T07:09:29;8.30;;;3.83;;
30020;SDS011;16861;52.294;7.760;2024-03-17T07:11:55;9.30;;;3.72;;
30020;SDS011;16861;52.294;7.760;2024-03-17T07:17:08;8.32;;;3.83;;
30020;SDS011;16861;52.294;7.760;2024-03-17T07:19:34;12.60;;;4.43;;
30020;SDS011;16861;52.294;7.760;2024-03-17T07:24:36;8.38;;;4.10;;
30020;SDS011;16861;52.294;7.760;2024-03-17T07:29:50;8.68;;;4.53;;
30020;SDS011;16861;52.294;7.760;2024-03-17T07:32:16;12.60;;;4.78;;
30020;SDS011;16861;52.294;7.760;2024-03-17T07:34:50;9.90;;;5.05;;
30020;SDS011;16861;52.294;7.760;2024-03-17T07:37:16;9.55;;;5.18;;
30020;SDS011;16861;52.294;7.760;2024-03-17T07:42:36;10.32;;;5.20;;
30020;SDS011;16861;52.294;7.760;2024-03-17T07:45:02;13.65;;;5.50;;
30020;SDS011;16861;52.294;7.760;2024-03-17T07:50:12;11.65;;;5.38;;
30020;SDS011;16861;52.294;7.760;2024-03-17T07:52:38;13.20;;;5.93;;
30020;SDS011;16861;52.294;7.760;2024-03-17T07:57:34;11.20;;;5.60;;
30020;SDS011;16861;52.294;7.760;2024-03-17T08:00:01;17.33;;;5.60;;
30020;SDS011;16861;52.294;7.760;2024-03-17T08:02:27;12.73;;;6.57;;
30020;SDS011;16861;52.294;7.760;2024-03-17T08:04:54;9.05;;;6.00;;
30020;SDS011;16861;52.294;7.760;2024-03-17T08:07:19;11.00;;;6.00;;
30020;SDS011;16861;52.294;7.760;2024-03-17T08:09:45;16.27;;;6.32;;
30020;SDS011;16861;52.294;7.760;2024-03-17T08:12:20;10.75;;;5.95;;
30020;SDS011;16861;52.294;7.760;2024-03-17T08:14:45;11.50;;;6.30;;
30020;SDS011;16861;52.294;7.760;2024-03-17T08:17:11;11.80;;;6.50;;
30020;SDS011;16861;52.294;7.760;2024-03-17T08:19:36;12.35;;;6.30;;
30020;SDS011;16861;52.294;7.760;2024-03-17T08:22:17;11.75;;;6.57;;
30020;SDS011;16861;52.294;7.760;2024-03-17T08:24:43;9.60;;;6.40;;
30020;SDS011;16861;52.294;7.760;2024-03-17T08:29:51;9.77;;;6.63;;
30020;SDS011;16861;52.294;7.760;2024-03-17T08:32:25;10.35;;;5.55;;
30020;SDS011;16861;52.294;7.760;2024-03-17T08:34:50;11.70;;;6.00;;
30020;SDS011;16861;52.294;7.760;2024-03-17T08:37:16;9.98;;;6.18;;
30020;SDS011;16861;52.294;7.760;2024-03-17T08:39:42;12.60;;;6.57;;
30020;SDS011;16861;52.294;7.760;2024-03-17T08:42:07;9.63;;;6.20;;
30020;SDS011;16861;52.294;7.760;2024-03-17T08:44:35;13.27;;;6.45;;
30020;SDS011;16861;52.294;7.760;2024-03-17T08:47:01;14.52;;;6.85;;
30020;SDS011;16861;52.294;7.760;2024-03-17T08:49:26;15.15;;;6.95;;
30020;SDS011;16861;52.294;7.760;2024-03-17T08:52:07;13.95;;;6.63;;
30020;SDS011;16861;52.294;7.760;2024-03-17T08:54:33;10.20;;;6.85;;
30020;SDS011;16861;52.294;7.760;2024-03-17T08:59:42;11.52;;;6.88;;
30020;SDS011;16861;52.294;7.760;2024-03-17T09:02:11;14.10;;;6.53;;
30020;SDS011;16861;52.294;7.760;2024-03-17T09:04:43;12.60;;;7.40;;
30020;SDS011;16861;52.294;7.760;2024-03-17T09:07:11;13.65;;;6.82;;
30020;SDS011;16861;52.294;7.760;2024-03-17T09:09:39;10.18;;;7.10;;
30020;SDS011;16861;52.294;7.760;2024-03-17T09:15:11;12.45;;;5.93;;
30020;SDS011;16861;52.294;7.760;2024-03-17T09:17:50;10.40;;;6.10;;
30020;SDS011;16861;52.294;7.760;2024-03-17T09:20:16;12.32;;;6.43;;
30020;SDS011;16861;52.294;7.760;2024-03-17T09:22:43;10.07;;;6.07;;
30020;SDS011;16861;52.294;7.760;2024-03-17T09:25:08;11.00;;;6.72;;
30020;SDS011;16861;52.294;7.760;2024-03-17T09:30:20;10.65;;;6.43;;
30020;SDS011;16861;52.294;7.760;2024-03-17T09:35:41;14.20;;;7.72;;
30020;SDS011;16861;52.294;7.760;2024-03-17T09:40:36;11.63;;;7.65;;
30020;SDS011;16861;52.294;7.760;2024-03-17T09:43:02;11.25;;;7.82;;
30020;SDS011;16861;52.294;7.760;2024-03-17T09:48:14;10.90;;;7.85;;
30020;SDS011;16861;52.294;7.760;2024-03-17T09:51:01;15.10;;;8.55;;
30020;SDS011;16861;52.294;7.760;2024-03-17T09:54:01;12.43;;;8.20;;
30020;SDS011;16861;52.294;7.760;2024-03-17T09:56:59;12.75;;;8.20;;
30020;SDS011;16861;52.294;7.760;2024-03-17T09:59:25;15.93;;;8.73;;
30020;SDS011;16861;52.294;7.760;2024-03-17T10:02:03;11.93;;;8.85;;
30020;SDS011;16861;52.294;7.760;2024-03-17T10:04:40;11.40;;;8.57;;
30020;SDS011;16861;52.294;7.760;2024-03-17T10:07:05;11.18;;;7.68;;
30020;SDS011;16861;52.294;7.760;2024-03-17T10:09:37;14.10;;;8.32;;
30020;SDS011;16861;52.294;7.760;2024-03-17T10:12:04;12.73;;;8.88;;
30020;SDS011;16861;52.294;7.760;2024-03-17T10:14:34;12.88;;;8.75;;
30020;SDS011;16861;52.294;7.760;2024-03-17T10:19:36;11.32;;;8.20;;
30020;SDS011;16861;52.294;7.760;2024-03-17T10:25:03;12.65;;;8.18;;
30020;SDS011;16861;52.294;7.760;2024-03-17T10:27:29;11.82;;;8.82;;
30020;SDS011;16861;52.294;7.760;2024-03-17T10:29:55;9.43;;;8.10;;
30020;SDS011;16861;52.294;7.760;2024-03-17T10:32:21;12.43;;;8.70;;
30020;SDS011;16861;52.294;7.760;2024-03-17T10:34:49;13.63;;;8.25;;
30020;SDS011;16861;52.294;7.760;2024-03-17T10:43:48;9.73;;;8.27;;
30020;SDS011;16861;52.294;7.760;2024-03-17T10:46:14;10.48;;;8.68;;
30020;SDS011;16861;52.294;7.760;2024-03-17T10:48:40;10.90;;;8.75;;
30020;SDS011;16861;52.294;7.760;2024-03-17T10:51:17;12.20;;;8.82;;
30020;SDS011;16861;52.294;7.760;2024-03-17T10:53:44;10.93;;;7.75;;
30020;SDS011;16861;52.294;7.760;2024-03-17T10:56:14;11.50;;;8.52;;
30020;SDS011;16861;52.294;7.760;2024-03-17T10:58:44;13.80;;;9.38;;
30020;SDS011;16861;52.294;7.760;2024-03-17T11:01:17;12.77;;;9.13;;
30020;SDS011;16861;52.294;7.760;2024-03-17T11:03:48;11.00;;;8.70;;
30020;SDS011;16861;52.294;7.760;2024-03-17T11:09:08;14.05;;;9.77;;
30020;SDS011;16861;52.294;7.760;2024-03-17T11:11:41;12.07;;;9.02;;
30020;SDS011;16861;52.294;7.760;2024-03-17T11:14:18;14.63;;;10.18;;
30020;SDS011;16861;52.294;7.760;2024-03-17T11:16:47;15.20;;;9.80;;
30020;SDS011;16861;52.294;7.760;2024-03-17T11:21:44;11.48;;;9.55;;
30020;SDS011;16861;52.294;7.760;2024-03-17T11:24:20;13.43;;;9.32;;
30020;SDS011;16861;52.294;7.760;2024-03-17T11:29:27;13.15;;;9.60;;
30020;SDS011;16861;52.294;7.760;2024-03-17T11:35:13;12.57;;;9.80;;
30020;SDS011;16861;52.294;7.760;2024-03-17T11:37:42;14.85;;;10.05;;
30020;SDS011;16861;52.294;7.760;2024-03-17T11:40:24;13.02;;;10.13;;
30020;SDS011;16861;52.294;7.760;2024-03-17T11:46:31;14.93;;;9.75;;
30020;SDS011;16861;52.294;7.760;2024-03-17T11:49:04;11.43;;;9.05;;
30020;SDS011;16861;52.294;7.760;2024-03-17T11:51:29;11.65;;;9.77;;
30020;SDS011;16861;52.294;7.760;2024-03-17T11:56:26;12.48;;;9.98;;
30020;SDS011;16861;52.294;7.760;2024-03-17T11:59:06;11.55;;;9.73;;
30020;SDS011;16861;52.294;7.760;2024-03-17T12:01:36;12.00;;;8.15;;
30020;SDS011;16861;52.294;7.760;2024-03-17T12:04:06;12.02;;;9.27;;
30020;SDS011;16861;52.294;7.760;2024-03-17T12:09:23;12.25;;;8.48;;
30020;SDS011;16861;52.294;7.760;2024-03-17T12:12:03;10.82;;;8.15;;
30020;SDS011;16861;52.294;7.760;2024-03-17T12:14:30;10.05;;;8.32;;
30020;SDS011;16861;52.294;7.760;2024-03-17T12:20:03;13.05;;;8.88;;
30020;SDS011;16861;52.294;7.760;2024-03-17T12:24:57;10.20;;;8.23;;
30020;SDS011;16861;52.294;7.760;2024-03-17T12:27:25;11.55;;;8.70;;
30020;SDS011;16861;52.294;7.760;2024-03-17T12:29:52;10.10;;;7.97;;
30020;SDS011;16861;52.294;7.760;2024-03-17T12:32:19;12.65;;;8.77;;
30020;SDS011;16861;52.294;7.760;2024-03-17T12:34:49;10.50;;;7.80;;
30020;SDS011;16861;52.294;7.760;2024-03-17T12:37:26;12.82;;;8.50;;
30020;SDS011;16861;52.294;7.760;2024-03-17T12:40:02;9.98;;;7.97;;
30020;SDS011;16861;52.294;7.760;2024-03-17T12:42:29;10.05;;;8.40;;
30020;SDS011;16861;52.294;7.760;2024-03-17T12:44:56;12.05;;;8.40;;
30020;SDS011;16861;52.294;7.760;2024-03-17T12:47:24;10.27;;;7.75;;
30020;SDS011;16861;52.294;7.760;2024-03-17T12:49:55;9.50;;;7.35;;
30020;SDS011;16861;52.294;7.760;2024-03-17T12:57:45;11.70;;;7.95;;
30020;SDS011;16861;52.294;7.760;2024-03-17T13:00:31;9.32;;;7.75;;
30020;SDS011;16861;52.294;7.760;2024-03-17T13:02:57;9.07;;;7.68;;
30020;SDS011;16861;52.294;7.760;2024-03-17T13:05:24;10.50;;;7.47;;
30020;SDS011;16861;52.294;7.760;2024-03-17T13:07:50;8.40;;;7.35;;
30020;SDS011;16861;52.294;7.760;2024-03-17T13:10:16;8.50;;;7.05;;
30020;SDS011;16861;52.294;7.760;2024-03-17T13:12:43;9.38;;;7.55;;
30020;SDS011;16861;52.294;7.760;2024-03-17T13:15:16;12.45;;;6.97;;
30020;SDS011;16861;52.294;7.760;2024-03-17T13:17:43;10.48;;;6.97;;
30020;SDS011;16861;52.294;7.760;2024-03-17T13:20:16;8.50;;;7.32;;
30020;SDS011;16861;52.294;7.760;2024-03-17T13:22:44;11.88;;;7.93;;
30020;SDS011;16861;52.294;7.760;2024-03-17T13:25:14;9.48;;;7.70;;
30020;SDS011;16861;52.294;7.760;2024-03-17T13:27:42;9.25;;;7.72;;
30020;SDS011;16861;52.294;7.760;2024-03-17T13:30:08;9.30;;;8.25;;
30020;SDS011;16861;52.294;7.760;2024-03-17T13:32:35;10.70;;;8.48;;
30020;SDS011;16861;52.294;7.760;2024-03-17T13:35:01;8.77;;;7.80;;
30020;SDS011;16861;52.294;7.760;2024-03-17T13:37:27;10.07;;;8.23;;
30020;SDS011;16861;52.294;7.760;2024-03-17T13:39:53;11.73;;;8.30;;
30020;SDS011;16861;52.294;7.760;2024-03-17T13:42:19;10.65;;;8.25;;
30020;SDS011;16861;52.294;7.760;2024-03-17T13:44:45;11.10;;;8.27;;
30020;SDS011;16861;52.294;7.760;2024-03-17T13:47:11;9.77;;;7.82;;
30020;SDS011;16861;52.294;7.760;2024-03-17T13:49:39;10.38;;;7.97;;
30020;SDS011;16861;52.294;7.760;2024-03-17T13:52:05;10.10;;;7.65;;
30020;SDS011;16861;52.294;7.760;2024-03-17T13:54:31;10.38;;;7.75;;
30020;SDS011;16861;52.294;7.760;2024-03-17T13:56:57;12.75;;;8.10;;
30020;SDS011;16861;52.294;7.760;2024-03-17T13:59:23;12.65;;;7.78;;
30020;SDS011;16861;52.294;7.760;2024-03-17T14:01:50;8.82;;;7.20;;
30020;SDS011;16861;52.294;7.760;2024-03-17T14:04:16;8.88;;;7.72;;
30020;SDS011;16861;52.294;7.760;2024-03-17T14:06:46;9.90;;;8.00;;
30020;SDS011;16861;52.294;7.760;2024-03-17T14:09:14;10.77;;;8.25;;
30020;SDS011;16861;52.294;7.760;2024-03-17T14:11:43;11.43;;;7.65;;
30020;SDS011;16861;52.294;7.760;2024-03-17T14:14:10;10.30;;;7.63;;
30020;SDS011;16861;52.294;7.760;2024-03-17T14:16:36;10.48;;;7.85;;
30020;SDS011;16861;52.294;7.760;2024-03-17T14:19:02;13.23;;;7.88;;
30020;SDS011;16861;52.294;7.760;2024-03-17T14:21:28;11.10;;;7.72;;
30020;SDS011;16861;52.294;7.760;2024-03-17T14:23:54;10.05;;;7.82;;
30020;SDS011;16861;52.294;7.760;2024-03-17T14:26:20;11.75;;;7.75;;
30020;SDS011;16861;52.294;7.760;2024-03-17T14:28:46;8.75;;;7.90;;
30020;SDS011;16861;52.294;7.760;2024-03-17T14:31:14;12.18;;;9.02;;
30020;SDS011;16861;52.294;7.760;2024-03-17T14:33:40;9.85;;;8.38;;
30020;SDS011;16861;52.294;7.760;2024-03-17T14:36:05;10.98;;;9.00;;
30020;SDS011;16861;52.294;7.760;2024-03-17T14:38:31;9.88;;;8.10;;
30020;SDS011;16861;52.294;7.760;2024-03-17T14:40:57;12.38;;;8.77;;
30020;SDS011;16861;52.294;7.760;2024-03-17T14:43:23;9.98;;;8.77;;
30020;SDS011;16861;52.294;7.760;2024-03-17T14:45:48;11.60;;;8.27;;
30020;SDS011;16861;52.294;7.760;2024-03-17T14:48:14;10.95;;;8.27;;
30020;SDS011;16861;52.294;7.760;2024-03-17T14:50:39;14.00;;;8.10;;
30020;SDS011;16861;52.294;7.760;2024-03-17T14:53:06;10.15;;;8.27;;
30020;SDS011;16861;52.294;7.760;2024-03-17T14:55:32;11.07;;;8.52;;
30020;SDS011;16861;52.294;7.760;2024-03-17T14:57:58;11.43;;;8.63;;
30020;SDS011;16861;52.294;7.760;2024-03-17T15:00:28;12.32;;;9.07;;
30020;SDS011;16861;52.294;7.760;2024-03-17T15:02:55;10.38;;;8.70;;
30020;SDS011;16861;52.294;7.760;2024-03-17T15:05:21;12.82;;;8.82;;
30020;SDS011;16861;52.294;7.760;2024-03-17T15:07:48;11.45;;;8.60;;
30020;SDS011;16861;52.294;7.760;2024-03-17T15:10:15;13.75;;;9.68;;
30020;SDS011;16861;52.294;7.760;2024-03-17T15:12:41;12.55;;;9.35;;
30020;SDS011;16861;52.294;7.760;2024-03-17T15:15:07;14.00;;;8.73;;
30020;SDS011;16861;52.294;7.760;2024-03-17T15:17:36;14.45;;;8.82;;
30020;SDS011;16861;52.294;7.760;2024-03-17T15:20:02;10.18;;;8.85;;
30020;SDS011;16861;52.294;7.760;2024-03-17T15:22:39;9.90;;;8.57;;
30020;SDS011;16861;52.294;7.760;2024-03-17T15:25:05;11.70;;;9.13;;
30020;SDS011;16861;52.294;7.760;2024-03-17T15:27:31;13.45;;;8.40;;
30020;SDS011;16861;52.294;7.760;2024-03-17T15:29:57;11.98;;;8.75;;
30020;SDS011;16861;52.294;7.760;2024-03-17T15:32:23;11.60;;;9.13;;
30020;SDS011;16861;52.294;7.760;2024-03-17T15:34:48;16.60;;;9.10;;
30020;SDS011;16861;52.294;7.760;2024-03-17T15:37:14;13.05;;;9.05;;
30020;SDS011;16861;52.294;7.760;2024-03-17T15:39:41;12.73;;;9.13;;
30020;SDS011;16861;52.294;7.760;2024-03-17T15:42:08;13.13;;;9.30;;
30020;SDS011;16861;52.294;7.760;2024-03-17T15:44:38;9.45;;;8.10;;
30020;SDS011;16861;52.294;7.760;2024-03-17T15:47:05;11.60;;;8.45;;
30020;SDS011;16861;52.294;7.760;2024-03-17T15:49:31;13.18;;;9.27;;
30020;SDS011;16861;52.294;7.760;2024-03-17T15:51:57;11.50;;;8.98;;
30020;SDS011;16861;52.294;7.760;2024-03-17T15:54:23;13.60;;;9.40;;
30020;SDS011;16861;52.294;7.760;2024-03-17T15:56:49;11.80;;;9.60;;
30020;SDS011;16861;52.294;7.760;2024-03-17T15:59:14;12.32;;;9.43;;
30020;SDS011;16861;52.294;7.760;2024-03-17T16:01:44;12.30;;;9.02;;
30020;SDS011;16861;52.294;7.760;2024-03-17T16:04:10;11.43;;;8.77;;
30020;SDS011;16861;52.294;7.760;2024-03-17T16:06:36;12.02;;;8.60;;
30020;SDS011;16861;52.294;7.760;2024-03-17T16:09:04;12.98;;;8.52;;
30020;SDS011;16861;52.294;7.760;2024-03-17T16:11:36;13.10;;;9.73;;
30020;SDS011;16861;52.294;7.760;2024-03-17T16:14:03;10.25;;;8.30;;
30020;SDS011;16861;52.294;7.760;2024-03-17T16:16:29;12.88;;;8.77;;
30020;SDS011;16861;52.294;7.760;2024-03-17T16:18:57;12.35;;;9.38;;
30020;SDS011;16861;52.294;7.760;2024-03-17T16:21:23;12.40;;;9.27;;
30020;SDS011;16861;52.294;7.760;2024-03-17T16:24:33;13.25;;;9.38;;
30020;SDS011;16861;52.294;7.760;2024-03-17T16:26:43;12.00;;;9.10;;
30020;SDS011;16861;52.294;7.760;2024-03-17T16:29:09;15.40;;;9.68;;